sensor_id;sensor_type;location;lat;lon;timestamp;pressure;altitude;pressure_sealevel;temperature;humidity
29169;BME280;16219;42.864;23.360;2023-06-22T00:00:12;96277.63;;;17.70;100.00
29169;BME280;16219;42.864;23.360;2023-06-22T00:02:39;96285.47;;;17.63;100.00
29169;BME280;16219;42.864;23.360;2023-06-22T00:05:07;96280.91;;;17.63;100.00
29169;BME280;16219;42.864;23.360;2023-06-22T00:07:36;96275.53;;;17.47;100.00
29169;BME280;16219;42.864;23.360;2023-06-22T00:10:05;96267.78;;;17.42;100.00
29169;BME280;16219;42.864;23.360;2023-06-22T00:12:33;96274.06;;;17.34;100.00
29169;BME280;16219;42.864;23.360;2023-06-22T00:15:00;96267.69;;;17.39;100.00
29169;BME280;16219;42.864;23.360;2023-06-22T00:17:27;96274.91;;;17.38;100.00
29169;BME280;16219;42.864;23.360;2023-06-22T00:19:54;96253.13;;;17.36;100.00
29169;BME280;16219;42.864;23.360;2023-06-22T00:22:24;96260.47;;;17.39;100.00
29169;BME280;16219;42.864;23.360;2023-06-22T00:24:56;96255.72;;;17.33;100.00
29169;BME280;16219;42.864;23.360;2023-06-22T00:27:23;96254.16;;;17.32;100.00
29169;BME280;16219;42.864;23.360;2023-06-22T00:29:50;96259.41;;;17.28;100.00
29169;BME280;16219;42.864;23.360;2023-06-22T00:32:18;96273.84;;;17.27;100.00
29169;BME280;16219;42.864;23.360;2023-06-22T00:34:47;96263.97;;;17.28;100.00
29169;BME280;16219;42.864;23.360;2023-06-22T00:37:14;96264.75;;;17.28;100.00
29169;BME280;16219;42.864;23.360;2023-06-22T00:39:41;96252.97;;;17.29;100.00
29169;BME280;16219;42.864;23.360;2023-06-22T00:42:09;96255.88;;;17.24;100.00
29169;BME280;16219;42.864;23.360;2023-06-22T00:44:36;96250.59;;;17.12;100.00
29169;BME280;16219;42.864;23.360;2023-06-22T00:47:04;96255.59;;;17.13;100.00
29169;BME280;16219;42.864;23.360;2023-06-22T00:49:32;96256.78;;;17.16;100.00
29169;BME280;16219;42.864;23.360;2023-06-22T00:51:59;96256.31;;;17.26;100.00
29169;BME280;16219;42.864;23.360;2023-06-22T00:54:27;96257.19;;;17.30;100.00
29169;BME280;16219;42.864;23.360;2023-06-22T00:56:54;96257.75;;;17.23;100.00
29169;BME280;16219;42.864;23.360;2023-06-22T00:59:25;96262.78;;;17.25;100.00
29169;BME280;16219;42.864;23.360;2023-06-22T01:01:55;96251.41;;;17.12;100.00
29169;BME280;16219;42.864;23.360;2023-06-22T01:04:34;96261.72;;;17.14;100.00
29169;BME280;16219;42.864;23.360;2023-06-22T01:07:06;96264.28;;;17.10;100.00
29169;BME280;16219;42.864;23.360;2023-06-22T01:09:37;96267.19;;;17.05;100.00
29169;BME280;16219;42.864;23.360;2023-06-22T01:12:10;96268.63;;;17.03;100.00
29169;BME280;16219;42.864;23.360;2023-06-22T01:14:42;96272.53;;;17.05;100.00
29169;BME280;16219;42.864;23.360;2023-06-22T01:17:12;96270.22;;;17.04;100.00
29169;BME280;16219;42.864;23.360;2023-06-22T01:19:45;96265.44;;;16.97;100.00
29169;BME280;16219;42.864;23.360;2023-06-22T01:22:16;96265.28;;;17.06;100.00
29169;BME280;16219;42.864;23.360;2023-06-22T01:24:51;96267.84;;;17.02;100.00
29169;BME280;16219;42.864;23.360;2023-06-22T01:27:31;96263.13;;;16.95;100.00
29169;BME280;16219;42.864;23.360;2023-06-22T01:30:03;96257.59;;;16.88;100.00
29169;BME280;16219;42.864;23.360;2023-06-22T01:32:35;96266.88;;;16.94;100.00
29169;BME280;16219;42.864;23.360;2023-06-22T01:35:05;96266.25;;;16.85;100.00
29169;BME280;16219;42.864;23.360;2023-06-22T01:37:34;96264.09;;;16.75;100.00
29169;BME280;16219;42.864;23.360;2023-06-22T01:40:02;96258.50;;;16.68;100.00
29169;BME280;16219;42.864;23.360;2023-06-22T01:42:31;96278.38;;;16.70;100.00
29169;BME280;16219;42.864;23.360;2023-06-22T01:45:00;96278.28;;;16.79;100.00
29169;BME280;16219;42.864;23.360;2023-06-22T01:47:33;96276.38;;;16.80;100.00
29169;BME280;16219;42.864;23.360;2023-06-22T01:50:01;96282.06;;;16.78;100.00
29169;BME280;16219;42.864;23.360;2023-06-22T01:52:29;96286.94;;;16.76;100.00
29169;BME280;16219;42.864;23.360;2023-06-22T01:54:56;96295.81;;;16.68;100.00
29169;BME280;16219;42.864;23.360;2023-06-22T01:57:24;96291.94;;;16.65;100.00
29169;BME280;16219;42.864;23.360;2023-06-22T01:59:59;96289.59;;;16.64;100.00
29169;BME280;16219;42.864;23.360;2023-06-22T02:02:37;96287.59;;;16.73;100.00
29169;BME280;16219;42.864;23.360;2023-06-22T02:05:07;96288.81;;;16.63;100.00
29169;BME280;16219;42.864;23.360;2023-06-22T02:07:41;96286.41;;;16.58;100.00
29169;BME280;16219;42.864;23.360;2023-06-22T02:10:09;96295.16;;;16.59;100.00
29169;BME280;16219;42.864;23.360;2023-06-22T02:12:39;96302.28;;;16.55;100.00
29169;BME280;16219;42.864;23.360;2023-06-22T02:15:09;96303.81;;;16.56;100.00
29169;BME280;16219;42.864;23.360;2023-06-22T02:17:40;96304.50;;;16.53;100.00
29169;BME280;16219;42.864;23.360;2023-06-22T02:20:12;96290.06;;;16.54;100.00
29169;BME280;16219;42.864;23.360;2023-06-22T02:22:41;96279.88;;;16.43;100.00
29169;BME280;16219;42.864;23.360;2023-06-22T02:25:10;96272.09;;;16.50;100.00
29169;BME280;16219;42.864;23.360;2023-06-22T02:27:37;96279.31;;;16.50;100.00
29169;BME280;16219;42.864;23.360;2023-06-22T02:30:07;96278.75;;;16.57;100.00
29169;BME280;16219;42.864;23.360;2023-06-22T02:32:35;96282.97;;;16.58;100.00
29169;BME280;16219;42.864;23.360;2023-06-22T02:35:04;96280.53;;;16.53;100.00
29169;BME280;16219;42.864;23.360;2023-06-22T02:37:32;96286.31;;;16.42;100.00
29169;BME280;16219;42.864;23.360;2023-06-22T02:39:59;96292.31;;;16.39;100.00
29169;BME280;16219;42.864;23.360;2023-06-22T02:42:28;96283.22;;;16.28;100.00
29169;BME280;16219;42.864;23.360;2023-06-22T02:44:55;96285.44;;;16.26;100.00
29169;BME280;16219;42.864;23.360;2023-06-22T02:47:23;96291.22;;;16.28;100.00
29169;BME280;16219;42.864;23.360;2023-06-22T02:49:51;96289.44;;;16.32;100.00
29169;BME280;16219;42.864;23.360;2023-06-22T02:52:20;96286.53;;;16.37;100.00
29169;BME280;16219;42.864;23.360;2023-06-22T02:54:47;96287.78;;;16.40;100.00
29169;BME280;16219;42.864;23.360;2023-06-22T02:57:15;96292.75;;;16.41;100.00
29169;BME280;16219;42.864;23.360;2023-06-22T02:59:43;96295.06;;;16.43;100.00
29169;BME280;16219;42.864;23.360;2023-06-22T03:02:12;96300.28;;;16.39;100.00
29169;BME280;16219;42.864;23.360;2023-06-22T03:04:40;96295.84;;;16.43;100.00
29169;BME280;16219;42.864;23.360;2023-06-22T03:07:08;96294.97;;;16.39;100.00
29169;BME280;16219;42.864;23.360;2023-06-22T03:09:36;96298.75;;;16.38;100.00
29169;BME280;16219;42.864;23.360;2023-06-22T03:12:04;96306.94;;;16.45;100.00
29169;BME280;16219;42.864;23.360;2023-06-22T03:14:46;96300.97;;;16.48;100.00
29169;BME280;16219;42.864;23.360;2023-06-22T03:17:14;96312.94;;;16.55;100.00
29169;BME280;16219;42.864;23.360;2023-06-22T03:19:41;96312.94;;;16.55;100.00
29169;BME280;16219;42.864;23.360;2023-06-22T03:22:08;96315.47;;;16.51;100.00
29169;BME280;16219;42.864;23.360;2023-06-22T03:24:37;96316.06;;;16.57;100.00
29169;BME280;16219;42.864;23.360;2023-06-22T03:27:05;96318.47;;;16.62;100.00
29169;BME280;16219;42.864;23.360;2023-06-22T03:29:34;96317.25;;;16.59;100.00
29169;BME280;16219;42.864;23.360;2023-06-22T03:32:01;96321.56;;;16.64;100.00
29169;BME280;16219;42.864;23.360;2023-06-22T03:34:31;96320.03;;;16.63;100.00
29169;BME280;16219;42.864;23.360;2023-06-22T03:36:59;96319.03;;;16.80;100.00
29169;BME280;16219;42.864;23.360;2023-06-22T03:39:27;96319.09;;;16.95;100.00
29169;BME280;16219;42.864;23.360;2023-06-22T03:41:55;96319.75;;;16.92;100.00
29169;BME280;16219;42.864;23.360;2023-06-22T03:44:23;96332.06;;;16.97;100.00
29169;BME280;16219;42.864;23.360;2023-06-22T03:46:50;96329.72;;;17.08;100.00
29169;BME280;16219;42.864;23.360;2023-06-22T03:49:19;96325.94;;;17.09;100.00
29169;BME280;16219;42.864;23.360;2023-06-22T03:51:46;96316.63;;;17.03;100.00
29169;BME280;16219;42.864;23.360;2023-06-22T03:54:14;96334.50;;;17.02;100.00
29169;BME280;16219;42.864;23.360;2023-06-22T03:56:40;96329.06;;;16.98;100.00
29169;BME280;16219;42.864;23.360;2023-06-22T03:59:09;96321.97;;;16.90;100.00
29169;BME280;16219;42.864;23.360;2023-06-22T04:01:37;96324.84;;;16.97;100.00
29169;BME280;16219;42.864;23.360;2023-06-22T04:04:05;96331.66;;;17.23;100.00
29169;BME280;16219;42.864;23.360;2023-06-22T04:06:32;96329.66;;;17.20;100.00
29169;BME280;16219;42.864;23.360;2023-06-22T04:09:00;96331.66;;;17.23;100.00
29169;BME280;16219;42.864;23.360;2023-06-22T04:11:28;96327.91;;;17.40;100.00
29169;BME280;16219;42.864;23.360;2023-06-22T04:13:55;96311.53;;;17.69;100.00
29169;BME280;16219;42.864;23.360;2023-06-22T04:16:25;96313.63;;;18.23;100.00
29169;BME280;16219;42.864;23.360;2023-06-22T04:18:52;96313.72;;;18.78;100.00
29169;BME280;16219;42.864;23.360;2023-06-22T04:21:19;96319.97;;;19.44;100.00
29169;BME280;16219;42.864;23.360;2023-06-22T04:23:46;96317.06;;;20.18;100.00
29169;BME280;16219;42.864;23.360;2023-06-22T04:26:14;96323.66;;;20.77;100.00
29169;BME280;16219;42.864;23.360;2023-06-22T04:28:41;96318.44;;;21.52;100.00
29169;BME280;16219;42.864;23.360;2023-06-22T04:31:08;96329.16;;;22.33;100.00
29169;BME280;16219;42.864;23.360;2023-06-22T04:33:37;96321.19;;;23.13;100.00
29169;BME280;16219;42.864;23.360;2023-06-22T04:36:06;96305.22;;;23.67;100.00
29169;BME280;16219;42.864;23.360;2023-06-22T04:38:33;96327.56;;;24.35;100.00
29169;BME280;16219;42.864;23.360;2023-06-22T04:41:00;96338.69;;;24.87;100.00
29169;BME280;16219;42.864;23.360;2023-06-22T04:43:28;96337.53;;;24.88;94.74
29169;BME280;16219;42.864;23.360;2023-06-22T04:45:56;96339.72;;;25.29;91.59
29169;BME280;16219;42.864;23.360;2023-06-22T04:48:28;96347.38;;;25.41;91.27
29169;BME280;16219;42.864;23.360;2023-06-22T04:50:59;96347.13;;;25.91;87.72
29169;BME280;16219;42.864;23.360;2023-06-22T04:53:29;96350.47;;;26.58;83.69
29169;BME280;16219;42.864;23.360;2023-06-22T04:55:56;96348.69;;;26.86;77.67
29169;BME280;16219;42.864;23.360;2023-06-22T04:58:23;96351.22;;;27.00;80.40
29169;BME280;16219;42.864;23.360;2023-06-22T05:00:54;96338.06;;;27.36;82.15
29169;BME280;16219;42.864;23.360;2023-06-22T05:03:24;96325.50;;;27.50;79.25
29169;BME280;16219;42.864;23.360;2023-06-22T05:05:51;96330.00;;;27.60;77.14
29169;BME280;16219;42.864;23.360;2023-06-22T05:08:20;96345.91;;;27.88;76.23
29169;BME280;16219;42.864;23.360;2023-06-22T05:10:52;96346.69;;;28.39;68.55
29169;BME280;16219;42.864;23.360;2023-06-22T05:13:19;96341.38;;;29.19;61.42
29169;BME280;16219;42.864;23.360;2023-06-22T05:15:47;96349.19;;;29.57;61.41
29169;BME280;16219;42.864;23.360;2023-06-22T05:18:14;96345.25;;;29.38;58.53
29169;BME280;16219;42.864;23.360;2023-06-22T05:20:41;96348.81;;;29.35;57.13
29169;BME280;16219;42.864;23.360;2023-06-22T05:23:08;96350.69;;;29.58;55.74
29169;BME280;16219;42.864;23.360;2023-06-22T05:25:36;96363.56;;;28.94;60.28
29169;BME280;16219;42.864;23.360;2023-06-22T05:28:04;96357.47;;;28.16;66.58
29169;BME280;16219;42.864;23.360;2023-06-22T05:30:36;96360.00;;;27.46;75.26
29169;BME280;16219;42.864;23.360;2023-06-22T05:33:03;96354.84;;;26.86;77.97
29169;BME280;16219;42.864;23.360;2023-06-22T05:35:30;96352.31;;;26.20;86.80
29169;BME280;16219;42.864;23.360;2023-06-22T05:37:57;96344.53;;;25.70;89.39
29169;BME280;16219;42.864;23.360;2023-06-22T05:40:24;96344.03;;;25.02;95.94
29169;BME280;16219;42.864;23.360;2023-06-22T05:42:54;96346.81;;;24.73;97.75
29169;BME280;16219;42.864;23.360;2023-06-22T05:45:21;96338.38;;;24.57;100.00
29169;BME280;16219;42.864;23.360;2023-06-22T05:47:48;96336.44;;;24.47;100.00
29169;BME280;16219;42.864;23.360;2023-06-22T05:50:15;96331.44;;;24.56;100.00
29169;BME280;16219;42.864;23.360;2023-06-22T05:52:42;96333.69;;;24.72;100.00
29169;BME280;16219;42.864;23.360;2023-06-22T05:55:09;96329.06;;;24.76;100.00
29169;BME280;16219;42.864;23.360;2023-06-22T05:57:36;96329.06;;;24.79;100.00
29169;BME280;16219;42.864;23.360;2023-06-22T06:00:06;96327.94;;;24.62;100.00
29169;BME280;16219;42.864;23.360;2023-06-22T06:02:36;96324.47;;;24.62;100.00
29169;BME280;16219;42.864;23.360;2023-06-22T06:05:10;96320.22;;;24.75;100.00
29169;BME280;16219;42.864;23.360;2023-06-22T06:07:37;96324.78;;;24.92;100.00
29169;BME280;16219;42.864;23.360;2023-06-22T06:10:04;96320.50;;;25.06;100.00
29169;BME280;16219;42.864;23.360;2023-06-22T06:12:32;96325.06;;;25.27;100.00
29169;BME280;16219;42.864;23.360;2023-06-22T06:14:59;96325.84;;;25.27;100.00
29169;BME280;16219;42.864;23.360;2023-06-22T06:17:27;96315.78;;;25.31;100.00
29169;BME280;16219;42.864;23.360;2023-06-22T06:19:54;96319.22;;;25.42;100.00
29169;BME280;16219;42.864;23.360;2023-06-22T06:22:21;96312.66;;;25.40;100.00
29169;BME280;16219;42.864;23.360;2023-06-22T06:24:49;96315.75;;;25.38;100.00
29169;BME280;16219;42.864;23.360;2023-06-22T06:27:16;96314.97;;;25.41;100.00
29169;BME280;16219;42.864;23.360;2023-06-22T06:29:45;96311.81;;;25.54;100.00
29169;BME280;16219;42.864;23.360;2023-06-22T06:32:14;96319.81;;;25.75;100.00
29169;BME280;16219;42.864;23.360;2023-06-22T06:34:42;96307.75;;;25.90;99.13
29169;BME280;16219;42.864;23.360;2023-06-22T06:37:09;96310.81;;;25.92;100.00
29169;BME280;16219;42.864;23.360;2023-06-22T06:39:36;96303.91;;;25.88;99.06
29169;BME280;16219;42.864;23.360;2023-06-22T06:42:05;96303.19;;;25.80;95.52
29169;BME280;16219;42.864;23.360;2023-06-22T06:44:32;96304.72;;;25.74;99.67
29169;BME280;16219;42.864;23.360;2023-06-22T06:46:59;96305.13;;;25.73;98.05
29169;BME280;16219;42.864;23.360;2023-06-22T06:49:26;96303.19;;;25.73;100.00
29169;BME280;16219;42.864;23.360;2023-06-22T06:51:54;96310.19;;;25.71;100.00
29169;BME280;16219;42.864;23.360;2023-06-22T06:54:22;96303.94;;;25.84;100.00
29169;BME280;16219;42.864;23.360;2023-06-22T06:56:49;96294.97;;;25.95;100.00
29169;BME280;16219;42.864;23.360;2023-06-22T06:59:16;96301.53;;;25.93;100.00
29169;BME280;16219;42.864;23.360;2023-06-22T07:01:43;96296.94;;;25.87;100.00
29169;BME280;16219;42.864;23.360;2023-06-22T07:04:10;96300.78;;;25.93;100.00
29169;BME280;16219;42.864;23.360;2023-06-22T07:06:37;96304.53;;;26.06;100.00
29169;BME280;16219;42.864;23.360;2023-06-22T07:09:06;96301.28;;;26.26;100.00
29169;BME280;16219;42.864;23.360;2023-06-22T07:11:33;96290.81;;;26.31;100.00
29169;BME280;16219;42.864;23.360;2023-06-22T07:14:01;96297.50;;;26.61;100.00
29169;BME280;16219;42.864;23.360;2023-06-22T07:16:28;96298.69;;;26.60;100.00
29169;BME280;16219;42.864;23.360;2023-06-22T07:18:56;96301.91;;;26.40;100.00
29169;BME280;16219;42.864;23.360;2023-06-22T07:21:23;96303.59;;;26.27;100.00
29169;BME280;16219;42.864;23.360;2023-06-22T07:23:50;96299.06;;;26.13;100.00
29169;BME280;16219;42.864;23.360;2023-06-22T07:26:18;96309.34;;;26.29;100.00
29169;BME280;16219;42.864;23.360;2023-06-22T07:28:45;96302.31;;;26.80;100.00
29169;BME280;16219;42.864;23.360;2023-06-22T07:31:12;96301.22;;;27.12;100.00
29169;BME280;16219;42.864;23.360;2023-06-22T07:33:39;96301.69;;;27.34;100.00
29169;BME280;16219;42.864;23.360;2023-06-22T07:36:06;96301.91;;;27.47;100.00
29169;BME280;16219;42.864;23.360;2023-06-22T07:38:34;96300.59;;;27.58;99.37
29169;BME280;16219;42.864;23.360;2023-06-22T07:41:02;96296.28;;;27.61;99.20
29169;BME280;16219;42.864;23.360;2023-06-22T07:43:32;96297.56;;;27.83;94.49
29169;BME280;16219;42.864;23.360;2023-06-22T07:46:00;96293.19;;;27.89;90.97
29169;BME280;16219;42.864;23.360;2023-06-22T07:48:27;96286.00;;;28.03;92.31
29169;BME280;16219;42.864;23.360;2023-06-22T07:50:54;96275.56;;;28.25;94.19
29169;BME280;16219;42.864;23.360;2023-06-22T07:53:21;96278.88;;;28.36;93.45
29169;BME280;16219;42.864;23.360;2023-06-22T07:55:48;96274.69;;;28.55;97.33
29169;BME280;16219;42.864;23.360;2023-06-22T07:58:15;96272.13;;;28.68;97.36
29169;BME280;16219;42.864;23.360;2023-06-22T08:00:46;96260.22;;;28.81;97.10
29169;BME280;16219;42.864;23.360;2023-06-22T08:03:14;96272.31;;;28.77;89.26
29169;BME280;16219;42.864;23.360;2023-06-22T08:05:41;96269.47;;;28.64;96.99
29169;BME280;16219;42.864;23.360;2023-06-22T08:08:08;96259.50;;;28.77;93.18
29169;BME280;16219;42.864;23.360;2023-06-22T08:10:35;96262.41;;;28.67;91.86
29169;BME280;16219;42.864;23.360;2023-06-22T08:13:02;96253.56;;;28.62;88.16
29169;BME280;16219;42.864;23.360;2023-06-22T08:15:29;96253.63;;;28.39;96.15
29169;BME280;16219;42.864;23.360;2023-06-22T08:17:58;96251.19;;;28.45;96.33
29169;BME280;16219;42.864;23.360;2023-06-22T08:20:26;96256.78;;;28.57;96.46
29169;BME280;16219;42.864;23.360;2023-06-22T08:22:54;96272.84;;;28.48;95.53
29169;BME280;16219;42.864;23.360;2023-06-22T08:25:21;96267.28;;;28.32;100.00
29169;BME280;16219;42.864;23.360;2023-06-22T08:27:48;96257.88;;;28.40;100.00
29169;BME280;16219;42.864;23.360;2023-06-22T08:30:15;96259.31;;;28.68;100.00
29169;BME280;16219;42.864;23.360;2023-06-22T08:32:42;96257.63;;;28.74;97.18
29169;BME280;16219;42.864;23.360;2023-06-22T08:35:11;96255.28;;;28.76;97.65
29169;BME280;16219;42.864;23.360;2023-06-22T08:37:38;96250.25;;;28.95;100.00
29169;BME280;16219;42.864;23.360;2023-06-22T08:40:07;96236.63;;;28.98;100.00
29169;BME280;16219;42.864;23.360;2023-06-22T08:42:35;96244.94;;;29.27;100.00
29169;BME280;16219;42.864;23.360;2023-06-22T08:45:02;96246.78;;;29.30;96.90
29169;BME280;16219;42.864;23.360;2023-06-22T08:47:29;96244.31;;;29.20;92.01
29169;BME280;16219;42.864;23.360;2023-06-22T08:49:56;96236.22;;;29.16;100.00
29169;BME280;16219;42.864;23.360;2023-06-22T08:52:25;96230.16;;;29.28;95.53
29169;BME280;16219;42.864;23.360;2023-06-22T08:54:52;96235.50;;;29.32;100.00
29169;BME280;16219;42.864;23.360;2023-06-22T08:57:19;96230.91;;;29.29;98.40
29169;BME280;16219;42.864;23.360;2023-06-22T08:59:46;96229.31;;;29.31;99.18
29169;BME280;16219;42.864;23.360;2023-06-22T09:02:13;96232.31;;;29.53;98.66
29169;BME280;16219;42.864;23.360;2023-06-22T09:04:40;96239.47;;;29.63;100.00
29169;BME280;16219;42.864;23.360;2023-06-22T09:07:07;96236.22;;;29.69;97.70
29169;BME280;16219;42.864;23.360;2023-06-22T09:09:35;96242.03;;;29.87;100.00
29169;BME280;16219;42.864;23.360;2023-06-22T09:12:03;96238.94;;;30.01;97.72
29169;BME280;16219;42.864;23.360;2023-06-22T09:14:30;96233.75;;;30.23;90.81
29169;BME280;16219;42.864;23.360;2023-06-22T09:16:57;96234.78;;;30.29;84.09
29169;BME280;16219;42.864;23.360;2023-06-22T09:19:24;96236.97;;;30.34;97.27
29169;BME280;16219;42.864;23.360;2023-06-22T09:21:51;96232.19;;;30.38;86.17
29169;BME280;16219;42.864;23.360;2023-06-22T09:24:18;96231.09;;;30.36;95.75
29169;BME280;16219;42.864;23.360;2023-06-22T09:26:47;96231.69;;;30.27;95.67
29169;BME280;16219;42.864;23.360;2023-06-22T09:29:14;96228.44;;;30.32;89.48
29169;BME280;16219;42.864;23.360;2023-06-22T09:31:41;96225.78;;;30.45;84.05
29169;BME280;16219;42.864;23.360;2023-06-22T09:34:08;96231.22;;;30.45;84.88
29169;BME280;16219;42.864;23.360;2023-06-22T09:36:35;96226.53;;;30.46;90.33
29169;BME280;16219;42.864;23.360;2023-06-22T09:39:05;96224.16;;;30.48;82.86
29169;BME280;16219;42.864;23.360;2023-06-22T09:41:32;96221.09;;;30.46;84.11
29169;BME280;16219;42.864;23.360;2023-06-22T09:44:00;96216.81;;;30.61;88.63
29169;BME280;16219;42.864;23.360;2023-06-22T09:46:27;96219.81;;;30.79;90.90
29169;BME280;16219;42.864;23.360;2023-06-22T09:48:54;96219.72;;;30.83;82.71
29169;BME280;16219;42.864;23.360;2023-06-22T09:51:22;96211.31;;;30.77;81.58
29169;BME280;16219;42.864;23.360;2023-06-22T09:53:49;96208.06;;;30.82;84.29
29169;BME280;16219;42.864;23.360;2023-06-22T09:56:16;96209.16;;;30.85;90.77
29169;BME280;16219;42.864;23.360;2023-06-22T09:58:44;96203.28;;;30.99;87.97
29169;BME280;16219;42.864;23.360;2023-06-22T10:01:13;96204.69;;;31.04;90.36
29169;BME280;16219;42.864;23.360;2023-06-22T10:03:41;96205.91;;;31.03;94.00
29169;BME280;16219;42.864;23.360;2023-06-22T10:06:08;96208.44;;;31.10;84.55
29169;BME280;16219;42.864;23.360;2023-06-22T10:08:35;96202.00;;;31.17;82.77
29169;BME280;16219;42.864;23.360;2023-06-22T10:11:03;96200.72;;;31.34;85.34
29169;BME280;16219;42.864;23.360;2023-06-22T10:13:30;96196.91;;;31.44;80.32
29169;BME280;16219;42.864;23.360;2023-06-22T10:15:57;96199.72;;;31.53;77.99
29169;BME280;16219;42.864;23.360;2023-06-22T10:18:25;96201.22;;;31.67;68.01
29169;BME280;16219;42.864;23.360;2023-06-22T10:20:52;96190.75;;;31.78;63.70
29169;BME280;16219;42.864;23.360;2023-06-22T10:23:20;96200.03;;;31.68;81.00
29169;BME280;16219;42.864;23.360;2023-06-22T10:25:47;96191.00;;;31.46;62.96
29169;BME280;16219;42.864;23.360;2023-06-22T10:28:14;96191.63;;;31.24;61.66
29169;BME280;16219;42.864;23.360;2023-06-22T10:30:42;96184.41;;;31.05;78.20
29169;BME280;16219;42.864;23.360;2023-06-22T10:33:10;96180.28;;;31.13;84.69
29169;BME280;16219;42.864;23.360;2023-06-22T10:35:39;96178.56;;;31.19;81.24
29169;BME280;16219;42.864;23.360;2023-06-22T10:38:06;96171.59;;;31.18;83.56
29169;BME280;16219;42.864;23.360;2023-06-22T10:40:34;96181.31;;;31.45;85.41
29169;BME280;16219;42.864;23.360;2023-06-22T10:43:01;96179.09;;;31.65;85.56
29169;BME280;16219;42.864;23.360;2023-06-22T10:45:28;96180.25;;;31.77;70.91
29169;BME280;16219;42.864;23.360;2023-06-22T10:47:55;96180.78;;;31.97;82.64
29169;BME280;16219;42.864;23.360;2023-06-22T10:50:23;96180.25;;;31.90;64.24
29169;BME280;16219;42.864;23.360;2023-06-22T10:52:53;96180.25;;;31.90;63.61
29169;BME280;16219;42.864;23.360;2023-06-22T10:55:20;96171.56;;;31.69;59.22
29169;BME280;16219;42.864;23.360;2023-06-22T10:57:48;96165.59;;;31.36;66.64
29169;BME280;16219;42.864;23.360;2023-06-22T11:00:16;96172.78;;;31.43;70.50
29169;BME280;16219;42.864;23.360;2023-06-22T11:02:43;96177.34;;;31.58;68.06
29169;BME280;16219;42.864;23.360;2023-06-22T11:05:10;96167.09;;;31.50;60.13
29169;BME280;16219;42.864;23.360;2023-06-22T11:07:41;96150.59;;;31.66;66.87
29169;BME280;16219;42.864;23.360;2023-06-22T11:10:10;96162.47;;;31.85;67.97
29169;BME280;16219;42.864;23.360;2023-06-22T11:12:37;96173.63;;;31.65;71.46
29169;BME280;16219;42.864;23.360;2023-06-22T11:15:05;96165.91;;;31.51;74.60
29169;BME280;16219;42.864;23.360;2023-06-22T11:17:33;96160.78;;;31.53;74.58
29169;BME280;16219;42.864;23.360;2023-06-22T11:20:01;96160.53;;;31.60;79.79
29169;BME280;16219;42.864;23.360;2023-06-22T11:22:31;96166.78;;;31.48;63.38
29169;BME280;16219;42.864;23.360;2023-06-22T11:24:59;96162.75;;;31.52;79.13
29169;BME280;16219;42.864;23.360;2023-06-22T11:27:27;96154.66;;;31.61;71.77
29169;BME280;16219;42.864;23.360;2023-06-22T11:29:55;96143.81;;;31.83;70.10
29169;BME280;16219;42.864;23.360;2023-06-22T11:32:23;96148.41;;;31.87;60.33
29169;BME280;16219;42.864;23.360;2023-06-22T11:34:50;96151.56;;;31.72;64.69
29169;BME280;16219;42.864;23.360;2023-06-22T11:37:18;96150.28;;;31.64;74.46
29169;BME280;16219;42.864;23.360;2023-06-22T11:39:45;96150.06;;;31.58;71.67
29169;BME280;16219;42.864;23.360;2023-06-22T11:42:12;96152.78;;;31.71;79.61
29169;BME280;16219;42.864;23.360;2023-06-22T11:44:41;96151.09;;;31.99;73.08
29169;BME280;16219;42.864;23.360;2023-06-22T11:47:09;96146.97;;;31.95;60.60
29169;BME280;16219;42.864;23.360;2023-06-22T11:49:37;96146.00;;;32.32;65.62
29169;BME280;16219;42.864;23.360;2023-06-22T11:52:04;96139.22;;;32.37;75.46
29169;BME280;16219;42.864;23.360;2023-06-22T11:54:31;96139.66;;;32.35;72.85
29169;BME280;16219;42.864;23.360;2023-06-22T11:56:59;96144.91;;;32.43;83.99
29169;BME280;16219;42.864;23.360;2023-06-22T11:59:26;96146.53;;;32.18;65.28
29169;BME280;16219;42.864;23.360;2023-06-22T12:01:56;96145.06;;;32.04;61.50
29169;BME280;16219;42.864;23.360;2023-06-22T12:04:24;96144.34;;;31.78;62.15
29169;BME280;16219;42.864;23.360;2023-06-22T12:06:51;96138.13;;;31.91;52.68
29169;BME280;16219;42.864;23.360;2023-06-22T12:09:19;96137.50;;;32.08;62.82
29169;BME280;16219;42.864;23.360;2023-06-22T12:11:46;96136.34;;;32.19;51.52
29169;BME280;16219;42.864;23.360;2023-06-22T12:14:13;96148.44;;;32.52;59.75
29169;BME280;16219;42.864;23.360;2023-06-22T12:16:41;96161.16;;;32.46;51.38
29169;BME280;16219;42.864;23.360;2023-06-22T12:19:11;96165.44;;;32.13;52.66
29169;BME280;16219;42.864;23.360;2023-06-22T12:21:38;96175.78;;;31.83;63.79
29169;BME280;16219;42.864;23.360;2023-06-22T12:24:06;96168.50;;;31.67;57.89
29169;BME280;16219;42.864;23.360;2023-06-22T12:26:33;96171.03;;;31.61;62.37
29169;BME280;16219;42.864;23.360;2023-06-22T12:29:01;96166.53;;;31.55;55.55
29169;BME280;16219;42.864;23.360;2023-06-22T12:31:28;96157.00;;;31.85;65.44
29169;BME280;16219;42.864;23.360;2023-06-22T12:33:55;96171.19;;;31.93;61.88
29169;BME280;16219;42.864;23.360;2023-06-22T12:36:24;96171.31;;;31.76;63.03
29169;BME280;16219;42.864;23.360;2023-06-22T12:38:51;96163.41;;;31.56;73.28
29169;BME280;16219;42.864;23.360;2023-06-22T12:41:20;96169.38;;;31.51;81.12
29169;BME280;16219;42.864;23.360;2023-06-22T12:43:47;96161.97;;;31.52;73.41
29169;BME280;16219;42.864;23.360;2023-06-22T12:46:14;96172.44;;;31.66;82.05
29169;BME280;16219;42.864;23.360;2023-06-22T12:48:42;96171.34;;;31.51;84.52